Terminal Aerodrome Forecast
Issued by NWS Pocatello, ID

Home | Current Version | Previous Version | Text Only | Print | Product List | Glossary On
Versions: 1 2 3 4 5 6 7 8 9 10 11 12 13 14 15
000
FTUS45 KPIH 021800 AAA
TAFIDA
TAF AMD
KIDA 021815Z 0218/0318 VRB06KT P6SM FEW150 BKN200
     FM022200 32006KT P6SM FEW050 BKN150
     FM030800 22012G22KT 2SM -SN SCT010 BKN020 OVC050
     FM031100 32015KT 1SM -SN SCT003 BKN006 OVC010=

USA.gov is the U.S. government's official web portal to all federal, state and local government web resources and services.